LHPP/PEV METAR and TAF weather

Enter ICAO airport designator
Station Type Date Time Source
LHPP METAR 2020/06/05 11:45 UTC NOAA

LHPP 051145Z 20009KT 9999 -RA FEW010 OVC083 18/16 Q1001 RERA


Station Type Date Time Source
LHPP Decoded METAR 2020/06/05 11:45 UTC NOAA

Pecs / Pogany, Hungary (LHPP) 46-06N 018-14E 203M
Jun 05, 2020 - 07:45 AM EDT / 2020.06.05 1145 UTC
Wind: from the SSW (200 degrees) at 10 MPH (9 KT):0
Visibility: greater than 7 mile(s):0
Sky conditions: overcast
Weather: light rain
Temperature: 64 F (18 C)
Dew Point: 60 F (16 C)
Relative Humidity: 88%
Pressure (altimeter): 29.56 in. Hg (1001 hPa)
ob: LHPP 051145Z 20009KT 9999 -RA FEW010 OVC083 18/16 Q1001 RERA
cycle: 12

Station Type Date Time Source
LHPP TAF 2017/08/21 15:50 UTC NOAA

TAF LHPP 211700Z 2115/2214 CNL

Example: see airport list